American Integrity — WDD2875 — position and weather

sailwx.info

Track history (hours):
 
Tides and Currents Weather Stations Pressure Air Temp Water Temp Dewpoint Dewpoint Depression Visibility Wind Speed Wind Dir Waves Ship Positions

American Integrity

Owner: American Steamship Company, Williamsville, NY. More information available from US FCC via Universal Licensing System and Coast Guard Vessel Documentation Center.

Last reported at 2015-May-24 02:33 UTC. Time now 2015-May-24 03:02 UTC.
Position N 46°42' W 092°01'.

; draft 8 m.

Type: Cargo ship. MMSI: 367120990.

Date/timePositionNaut miles runAvg speedWind from/ knotsBaromVisibWave heightAir tempDewpointWater temp
2015-May-24 02:33N 46°42' W 092°01'0 0.0
2015-May-24 01:33N 46°42' W 092°01'0 0.0
2015-May-24 00:33N 46°42' W 092°01'0 0.0
2015-May-23 23:33N 46°42' W 092°01'0 0.0
2015-May-23 22:33N 46°42' W 092°01'0 0.0
2015-May-23 21:33N 46°42' W 092°01'0 0.0
2015-May-23 20:33N 46°42' W 092°01'0 0.0
2015-May-23 19:33N 46°42' W 092°01'0 0.0
2015-May-23 18:33N 46°42' W 092°01'0 0.0
2015-May-23 17:33N 46°42' W 092°01'0 0.0
2015-May-23 16:33N 46°42' W 092°01'0 0.0
2015-May-23 15:33N 46°42' W 092°01'0 0.0
2015-May-23 14:33N 46°42' W 092°01'1 0.9
2015-May-23 13:33N 46°43' W 092°02'0 0.2
2015-May-23 12:33N 46°43' W 092°02'0 0.0
2015-May-23 11:33N 46°43' W 092°02'0 0.0
2015-May-23 10:33N 46°43' W 092°02'0 0.0
2015-May-23 09:33N 46°43' W 092°02'0 0.0
2015-May-23 08:33N 46°43' W 092°02'0 0.0
2015-May-23 07:33N 46°43' W 092°02'0 0.0
2015-May-23 06:33N 46°43' W 092°02'0 0.0
2015-May-23 05:33N 46°43' W 092°02'0 0.0
2015-May-23 04:33N 46°43' W 092°02'0 0.0
2015-May-23 03:33N 46°43' W 092°02'0 0.0
2015-May-23 02:33N 46°43' W 092°02'0 0.0
2015-May-23 01:33N 46°43' W 092°02'0 0.0
2015-May-23 00:33N 46°43' W 092°02'0 0.0
2015-May-22 23:33N 46°43' W 092°02'0 0.0
2015-May-22 22:33N 46°43' W 092°02'0 0.4
2015-May-22 21:33N 46°42' W 092°02'9 8.8
2015-May-22 20:33N 46°47' W 091°51'1313.4
2015-May-22 19:33N 46°53' W 091°33'1313.4
2015-May-22 18:33N 46°59' W 091°16'1313.3
2015-May-22 17:33N 47°05' W 090°58'28710.2
2015-May-21 13:24N 46°12' W 084°07'910.8
2015-May-21 12:33N 46°04' W 084°01'1110.8
2015-May-21 11:33N 45°55' W 083°52'1312.7
2015-May-21 10:33N 45°46' W 083°40'  
2015-May-18 19:33N 45°57' W 083°54'11 9.1
2015-May-18 18:18N 46°07' W 084°01'9 8.5
2015-May-18 17:13N 46°14' W 084°10'37 3.1
2015-May-18 05:25N 46°40' W 084°48'27111.3
2015-May-17 05:29N 47°02' W 091°23'1111.8
2015-May-17 04:33N 46°57' W 091°37'1211.8
2015-May-17 03:32N 46°51' W 091°53'1010.2
2015-May-17 02:33N 46°46' W 092°06'2 2.0
2015-May-17 01:33N 46°45' W 092°08'0 0.0
2015-May-17 00:33N 46°45' W 092°08'0 0.0
2015-May-16 23:33N 46°45' W 092°08'0 0.0
2015-May-16 22:33N 46°45' W 092°08'0 0.0
2015-May-16 21:33N 46°45' W 092°08'0 0.0
2015-May-16 20:32N 46°45' W 092°08'0 0.0
2015-May-16 19:33N 46°45' W 092°08'0 0.0
2015-May-16 18:33N 46°45' W 092°08'0 0.0
2015-May-16 17:33N 46°45' W 092°08'0 0.0
2015-May-16 16:33N 46°45' W 092°08'0 0.0
2015-May-16 15:33N 46°45' W 092°08'0 0.0
2015-May-16 14:32N 46°45' W 092°08'0 0.0
2015-May-16 13:33N 46°45' W 092°08'0 0.0
2015-May-16 12:33N 46°45' W 092°08'0 0.0
2015-May-16 11:33N 46°45' W 092°08'0 0.0
2015-May-16 10:33N 46°45' W 092°08'0 0.0
2015-May-16 09:33N 46°45' W 092°08'0 0.0
2015-May-16 08:33N 46°45' W 092°08'0 0.0
2015-May-16 07:33N 46°45' W 092°08'0 0.0
2015-May-16 06:33N 46°45' W 092°08'0 0.0
2015-May-16 05:32N 46°45' W 092°08'1 0.9
2015-May-16 04:33N 46°45' W 092°07'6 5.8
2015-May-16 03:33N 46°48' W 092°01'1313.2
2015-May-16 02:33N 46°53' W 091°43'29412.5
2015-May-15 03:04N 46°29' W 084°35'5 9.6
2015-May-15 02:33N 46°28' W 084°29'13 2.5
2015-May-14 21:19N 46°21' W 084°12'16 8.3
2015-May-14 19:24N 46°08' W 084°01'910.4
2015-May-14 18:32N 46°00' W 083°53'1312.7
2015-May-14 17:32N 45°48' W 083°46'  
Track history (hours):
 
Tides and Currents Weather Stations Pressure Air Temp Water Temp Dewpoint Dewpoint Depression Visibility Wind Speed Wind Dir Waves Ship Positions

American Integrity

Owner: American Steamship Company, Williamsville, NY. More information available from US FCC via Universal Licensing System and Coast Guard Vessel Documentation Center.

Last reported at 2015-May-24 02:33 UTC. Time now 2015-May-24 03:02 UTC.
Position N 46°42' W 092°01'.

; draft 8 m.

Type: Cargo ship. MMSI: 367120990.

Date/timePositionNaut miles runAvg speedWind from/ knotsBaromVisibWave heightAir tempDewpointWater temp
2015-May-24 02:33N 46°42' W 092°01'0 0.0
2015-May-24 01:33N 46°42' W 092°01'0 0.0
2015-May-24 00:33N 46°42' W 092°01'0 0.0
2015-May-23 23:33N 46°42' W 092°01'0 0.0
2015-May-23 22:33N 46°42' W 092°01'0 0.0
2015-May-23 21:33N 46°42' W 092°01'0 0.0
2015-May-23 20:33N 46°42' W 092°01'0 0.0
2015-May-23 19:33N 46°42' W 092°01'0 0.0
2015-May-23 18:33N 46°42' W 092°01'0 0.0
2015-May-23 17:33N 46°42' W 092°01'0 0.0
2015-May-23 16:33N 46°42' W 092°01'0 0.0
2015-May-23 15:33N 46°42' W 092°01'0 0.0
2015-May-23 14:33N 46°42' W 092°01'1 0.9
2015-May-23 13:33N 46°43' W 092°02'0 0.2
2015-May-23 12:33N 46°43' W 092°02'0 0.0
2015-May-23 11:33N 46°43' W 092°02'0 0.0
2015-May-23 10:33N 46°43' W 092°02'0 0.0
2015-May-23 09:33N 46°43' W 092°02'0 0.0
2015-May-23 08:33N 46°43' W 092°02'0 0.0
2015-May-23 07:33N 46°43' W 092°02'0 0.0
2015-May-23 06:33N 46°43' W 092°02'0 0.0
2015-May-23 05:33N 46°43' W 092°02'0 0.0
2015-May-23 04:33N 46°43' W 092°02'0 0.0
2015-May-23 03:33N 46°43' W 092°02'0 0.0
2015-May-23 02:33N 46°43' W 092°02'0 0.0
2015-May-23 01:33N 46°43' W 092°02'0 0.0
2015-May-23 00:33N 46°43' W 092°02'0 0.0
2015-May-22 23:33N 46°43' W 092°02'0 0.0
2015-May-22 22:33N 46°43' W 092°02'0 0.4
2015-May-22 21:33N 46°42' W 092°02'9 8.8
2015-May-22 20:33N 46°47' W 091°51'1313.4
2015-May-22 19:33N 46°53' W 091°33'1313.4
2015-May-22 18:33N 46°59' W 091°16'1313.3
2015-May-22 17:33N 47°05' W 090°58'28710.2
2015-May-21 13:24N 46°12' W 084°07'910.8
2015-May-21 12:33N 46°04' W 084°01'1110.8
2015-May-21 11:33N 45°55' W 083°52'1312.7
2015-May-21 10:33N 45°46' W 083°40'  
2015-May-18 19:33N 45°57' W 083°54'11 9.1
2015-May-18 18:18N 46°07' W 084°01'9 8.5
2015-May-18 17:13N 46°14' W 084°10'37 3.1
2015-May-18 05:25N 46°40' W 084°48'27111.3
2015-May-17 05:29N 47°02' W 091°23'1111.8
2015-May-17 04:33N 46°57' W 091°37'1211.8
2015-May-17 03:32N 46°51' W 091°53'1010.2
2015-May-17 02:33N 46°46' W 092°06'2 2.0
2015-May-17 01:33N 46°45' W 092°08'0 0.0
2015-May-17 00:33N 46°45' W 092°08'0 0.0
2015-May-16 23:33N 46°45' W 092°08'0 0.0
2015-May-16 22:33N 46°45' W 092°08'0 0.0
2015-May-16 21:33N 46°45' W 092°08'0 0.0
2015-May-16 20:32N 46°45' W 092°08'0 0.0
2015-May-16 19:33N 46°45' W 092°08'0 0.0
2015-May-16 18:33N 46°45' W 092°08'0 0.0
2015-May-16 17:33N 46°45' W 092°08'0 0.0
2015-May-16 16:33N 46°45' W 092°08'0 0.0
2015-May-16 15:33N 46°45' W 092°08'0 0.0
2015-May-16 14:32N 46°45' W 092°08'0 0.0
2015-May-16 13:33N 46°45' W 092°08'0 0.0
2015-May-16 12:33N 46°45' W 092°08'0 0.0
2015-May-16 11:33N 46°45' W 092°08'0 0.0
2015-May-16 10:33N 46°45' W 092°08'0 0.0
2015-May-16 09:33N 46°45' W 092°08'0 0.0
2015-May-16 08:33N 46°45' W 092°08'0 0.0
2015-May-16 07:33N 46°45' W 092°08'0 0.0
2015-May-16 06:33N 46°45' W 092°08'0 0.0
2015-May-16 05:32N 46°45' W 092°08'1 0.9
2015-May-16 04:33N 46°45' W 092°07'6 5.8
2015-May-16 03:33N 46°48' W 092°01'1313.2
2015-May-16 02:33N 46°53' W 091°43'29412.5
2015-May-15 03:04N 46°29' W 084°35'5 9.6
2015-May-15 02:33N 46°28' W 084°29'13 2.5
2015-May-14 21:19N 46°21' W 084°12'16 8.3
2015-May-14 19:24N 46°08' W 084°01'910.4
2015-May-14 18:32N 46°00' W 083°53'1312.7
2015-May-14 17:32N 45°48' W 083°46'  

Dump ship's entire track history